Time;durP1;ratioP1;P1;durP2;ratioP2;P2;SDS_P1;SDS_P2;PMS_P1;PMS_P2;Temp;Humidity;BMP_temperature;BMP_pressure;BME280_temperature;BME280_humidity;BME280_pressure;Samples;Min_cycle;Max_cycle;Signal;HPM_P1;HPM_P2
2022/04/19 00:00:21;;;;;;;17.75;14.18;;;9.70;99.90;;;;;;5057473;28;36159;-74
2022/04/19 00:02:48;;;;;;;17.02;14.07;;;9.70;99.90;;;;;;5051923;28;39144;-74
2022/04/19 00:05:14;;;;;;;18.80;14.38;;;9.60;99.90;;;;;;5075071;28;38336;-74
2022/04/19 00:07:42;;;;;;;17.58;13.73;;;9.60;99.90;;;;;;5077705;28;40046;-74
2022/04/19 00:10:08;;;;;;;18.05;13.93;;;9.60;99.90;;;;;;5071546;28;36552;-74
2022/04/19 00:12:35;;;;;;;17.00;13.23;;;9.50;99.90;;;;;;5063269;28;38942;-74
2022/04/19 00:15:02;;;;;;;17.85;14.68;;;9.50;99.90;;;;;;5054398;28;38507;-74
2022/04/19 00:17:28;;;;;;;18.37;14.27;;;9.40;99.90;;;;;;5065263;28;37666;-74
2022/04/19 00:19:55;;;;;;;16.83;13.35;;;9.40;99.90;;;;;;5075296;28;36823;-73
2022/04/19 00:22:21;;;;;;;19.23;13.50;;;9.30;99.90;;;;;;5053458;28;40455;-74
2022/04/19 00:24:47;;;;;;;16.95;13.82;;;9.30;99.90;;;;;;5076809;28;38375;-74
2022/04/19 00:27:13;;;;;;;15.27;12.32;;;9.30;99.90;;;;;;5071159;28;38434;-74
2022/04/19 00:29:41;;;;;;;21.07;14.20;;;9.20;99.90;;;;;;5029881;28;38431;-74
2022/04/19 00:32:11;;;;;;;16.97;12.70;;;9.20;99.90;;;;;;5050877;28;37615;-74
2022/04/19 00:34:41;;;;;;;18.87;14.13;;;9.10;99.90;;;;;;5063387;28;38434;-74
2022/04/19 00:37:10;;;;;;;16.90;13.83;;;9.10;99.90;;;;;;5064442;28;38257;-73
2022/04/19 00:39:36;;;;;;;14.97;12.93;;;9.10;99.90;;;;;;5061332;28;37576;-74
2022/04/19 00:42:02;;;;;;;17.23;13.27;;;9.00;99.90;;;;;;5053797;28;38906;-73
2022/04/19 00:44:37;;;;;;;16.40;13.30;;;9.00;99.90;;;;;;5079480;28;39779;-73
2022/04/19 00:47:09;;;;;;;18.80;14.13;;;9.00;99.90;;;;;;5077617;28;39380;-73
2022/04/19 00:49:37;;;;;;;19.52;13.77;;;9.00;99.90;;;;;;5059878;28;36504;-73
2022/04/19 00:52:08;;;;;;;17.47;12.70;;;9.00;99.90;;;;;;5046770;28;37659;-73
2022/04/19 00:54:35;;;;;;;16.80;13.53;;;8.90;99.90;;;;;;5068066;28;38309;-73
2022/04/19 00:57:02;;;;;;;20.03;13.73;;;8.90;99.90;;;;;;5065340;28;38249;-73
2022/04/19 00:59:33;;;;;;;19.63;14.30;;;8.90;99.90;;;;;;5060899;28;47257;-73
2022/04/19 01:02:03;;;;;;;20.03;14.53;;;8.80;99.90;;;;;;5070233;28;37415;-73
2022/04/19 01:04:30;;;;;;;18.67;14.10;;;8.80;99.90;;;;;;5062317;28;46891;-73
2022/04/19 01:06:58;;;;;;;18.67;13.70;;;8.80;99.90;;;;;;5062344;28;37464;-72
2022/04/19 01:09:27;;;;;;;16.87;14.37;;;8.80;99.90;;;;;;5070932;28;36515;-73
2022/04/19 01:14:41;;;;;;;20.70;14.27;;;8.60;99.90;;;;;;5069961;28;48758;-73
2022/04/19 01:17:08;;;;;;;19.10;14.73;;;8.60;99.90;;;;;;5077073;28;38044;-73
2022/04/19 01:19:38;;;;;;;18.43;14.03;;;8.50;99.90;;;;;;5063266;28;37286;-73
2022/04/19 01:22:06;;;;;;;18.30;14.07;;;8.50;99.90;;;;;;5053875;28;37854;-73
2022/04/19 01:24:32;;;;;;;20.20;14.40;;;8.40;99.90;;;;;;5057184;28;39124;-73
2022/04/19 01:26:58;;;;;;;18.37;13.83;;;8.40;99.90;;;;;;5080587;28;38539;-73
2022/04/19 01:29:26;;;;;;;18.13;14.13;;;8.40;99.90;;;;;;5064851;27;38123;-73
2022/04/19 01:31:53;;;;;;;18.13;14.10;;;8.40;99.90;;;;;;5067937;28;39657;-73
2022/04/19 01:34:19;;;;;;;19.37;14.13;;;8.40;99.90;;;;;;5068150;28;38075;-73
2022/04/19 01:36:45;;;;;;;23.33;15.10;;;8.40;99.90;;;;;;5065086;28;38298;-73
2022/04/19 01:39:12;;;;;;;17.80;12.60;;;8.40;99.90;;;;;;5079844;27;37725;-73
2022/04/19 01:41:39;;;;;;;17.80;14.97;;;8.30;99.90;;;;;;5054714;28;39299;-73
2022/04/19 01:44:07;;;;;;;19.60;14.07;;;8.40;99.90;;;;;;5056437;28;38252;-73
2022/04/19 01:46:34;;;;;;;18.40;14.27;;;8.30;99.90;;;;;;5061473;28;38419;-73
2022/04/19 01:49:07;;;;;;;19.23;14.77;;;8.40;99.90;;;;;;5069771;28;37886;-73
2022/04/19 01:51:36;;;;;;;18.23;14.50;;;8.30;99.90;;;;;;5061000;28;47886;-72
2022/04/19 01:54:02;;;;;;;18.07;13.87;;;8.20;99.90;;;;;;5079253;28;37129;-72
2022/04/19 01:56:28;;;;;;;19.63;14.93;;;8.20;99.90;;;;;;5053949;28;38366;-73
2022/04/19 01:59:00;;;;;;;22.57;16.23;;;8.20;99.90;;;;;;5032523;28;37372;-73
2022/04/19 02:01:28;;;;;;;19.03;15.60;;;8.10;99.90;;;;;;5059737;28;39216;-73
2022/04/19 02:03:58;;;;;;;24.37;15.90;;;8.10;99.90;;;;;;5049104;28;38360;-72
2022/04/19 02:06:24;;;;;;;20.60;15.00;;;8.00;99.90;;;;;;5044566;28;39220;-72
2022/04/19 02:08:50;;;;;;;19.53;15.07;;;8.00;99.90;;;;;;5062163;28;36618;-73
2022/04/19 02:11:16;;;;;;;20.17;16.03;;;7.90;99.90;;;;;;5085211;28;39628;-73
2022/04/19 02:13:42;;;;;;;20.50;15.50;;;7.90;99.90;;;;;;5063453;28;38262;-72
2022/04/19 02:16:09;;;;;;;20.40;15.17;;;7.90;99.90;;;;;;5055607;28;37932;-73
2022/04/19 02:18:35;;;;;;;23.17;17.13;;;7.90;99.90;;;;;;5065305;27;38315;-72
2022/04/19 02:21:01;;;;;;;22.47;16.87;;;7.80;99.90;;;;;;5066486;28;38860;-73
2022/04/19 02:23:30;;;;;;;23.33;17.97;;;7.80;99.90;;;;;;5064879;28;49139;-72
2022/04/19 02:25:56;;;;;;;22.53;17.10;;;7.70;99.90;;;;;;5071637;28;40246;-75
2022/04/19 02:28:23;;;;;;;23.33;16.73;;;7.70;99.90;;;;;;5070947;28;37475;-75
2022/04/19 02:30:50;;;;;;;21.70;17.50;;;7.70;99.90;;;;;;5063198;28;39633;-75
2022/04/19 02:33:20;;;;;;;23.07;17.00;;;7.60;99.90;;;;;;5076011;28;37895;-74
2022/04/19 02:35:46;;;;;;;23.13;17.17;;;7.60;99.90;;;;;;5078650;28;40353;-75
2022/04/19 02:38:13;;;;;;;21.60;16.47;;;7.50;99.90;;;;;;5056525;28;37647;-74
2022/04/19 02:40:39;;;;;;;21.10;16.00;;;7.50;99.90;;;;;;5061000;28;40746;-75
2022/04/19 02:43:05;;;;;;;23.40;16.47;;;7.50;99.90;;;;;;5056750;28;38733;-75
2022/04/19 02:45:32;;;;;;;22.27;17.20;;;7.40;99.90;;;;;;5059900;28;38337;-75
2022/04/19 02:48:08;;;;;;;21.07;17.10;;;7.30;99.90;;;;;;5060577;28;36923;-75
2022/04/19 02:50:43;;;;;;;22.80;17.53;;;7.30;99.90;;;;;;5048412;28;48963;-75
2022/04/19 02:53:13;;;;;;;21.27;17.13;;;7.30;99.90;;;;;;5061918;28;39031;-75
2022/04/19 02:55:39;;;;;;;23.40;17.33;;;7.30;99.90;;;;;;5073488;28;38096;-74
2022/04/19 02:58:07;;;;;;;23.27;17.70;;;7.30;99.90;;;;;;5074109;28;37465;-74
2022/04/19 03:00:33;;;;;;;22.53;17.47;;;7.30;99.90;;;;;;5055515;28;39915;-75
2022/04/19 03:02:59;;;;;;;22.83;17.13;;;7.30;99.90;;;;;;5070725;28;38781;-75
2022/04/19 03:05:25;;;;;;;31.90;20.07;;;7.40;99.90;;;;;;5071885;28;39888;-75
2022/04/19 03:07:52;;;;;;;26.80;19.83;;;7.30;99.90;;;;;;5074903;28;38429;-75
2022/04/19 03:10:18;;;;;;;28.17;19.73;;;7.40;99.90;;;;;;5071558;28;38941;-75
2022/04/19 03:12:47;;;;;;;28.10;21.13;;;7.40;99.90;;;;;;5089088;27;38537;-75
2022/04/19 03:15:14;;;;;;;26.47;20.17;;;7.50;99.90;;;;;;5061860;28;39872;-75
2022/04/19 03:17:43;;;;;;;27.50;21.27;;;7.60;99.90;;;;;;5050525;28;37588;-75
2022/04/19 03:20:11;;;;;;;26.30;19.90;;;7.50;99.90;;;;;;5069990;28;38154;-74
2022/04/19 03:28:09;;;;;;;27.97;21.63;;;7.50;99.90;;;;;;5068730;27;38004;-74
2022/04/19 03:30:39;;;;;;;23.70;19.70;;;7.40;99.90;;;;;;5066334;28;39416;-75
2022/04/19 03:33:05;;;;;;;27.00;21.00;;;7.30;99.90;;;;;;5059538;28;38634;-74
2022/04/19 03:35:31;;;;;;;26.77;21.13;;;7.30;99.90;;;;;;5065053;28;38612;-75
2022/04/19 03:38:00;;;;;;;25.93;19.47;;;7.30;99.90;;;;;;5063945;28;36201;-75
2022/04/19 03:40:26;;;;;;;26.87;20.67;;;7.20;99.90;;;;;;5054781;28;47951;-74
2022/04/19 03:42:55;;;;;;;27.30;20.60;;;7.20;99.90;;;;;;5064948;28;38645;-74
2022/04/19 03:45:21;;;;;;;27.57;21.53;;;7.10;99.90;;;;;;5064310;28;37601;-75
2022/04/19 03:47:49;;;;;;;29.43;21.73;;;7.10;99.90;;;;;;5065288;28;37847;-75
2022/04/19 03:50:18;;;;;;;29.27;21.63;;;7.10;99.90;;;;;;5048421;28;39671;-75
2022/04/19 03:52:44;;;;;;;29.87;21.90;;;7.00;99.90;;;;;;5075358;28;39691;-75
2022/04/19 03:55:13;;;;;;;30.10;22.83;;;7.00;99.90;;;;;;5048540;28;38790;-75
2022/04/19 03:57:40;;;;;;;32.73;22.93;;;7.00;99.90;;;;;;5060220;27;37843;-74
2022/04/19 04:00:06;;;;;;;35.13;22.37;;;6.90;99.90;;;;;;5063992;28;38886;-74
2022/04/19 04:02:33;;;;;;;29.27;21.87;;;6.90;99.90;;;;;;5072488;28;37936;-73
2022/04/19 04:04:59;;;;;;;29.27;23.17;;;6.80;99.90;;;;;;5067641;28;38670;-73
2022/04/19 04:07:28;;;;;;;28.47;21.93;;;6.80;99.90;;;;;;5061927;28;38594;-74
2022/04/19 04:09:55;;;;;;;32.17;22.93;;;6.80;99.90;;;;;;5070770;28;38755;-73
2022/04/19 04:12:24;;;;;;;28.83;22.13;;;6.80;99.90;;;;;;5064239;28;39345;-74
2022/04/19 04:14:50;;;;;;;29.50;22.20;;;6.70;99.90;;;;;;5067292;28;37811;-74
2022/04/19 04:17:19;;;;;;;28.43;22.50;;;6.70;99.90;;;;;;5066516;28;38419;-73
2022/04/19 04:19:48;;;;;;;29.53;23.60;;;6.80;99.90;;;;;;5070067;28;37953;-73
2022/04/19 04:22:14;;;;;;;29.27;21.97;;;6.70;99.90;;;;;;5059439;27;37017;-73
2022/04/19 04:24:40;;;;;;;32.83;21.63;;;6.70;99.90;;;;;;5065844;28;38276;-74
2022/04/19 04:27:06;;;;;;;32.90;23.37;;;6.80;99.90;;;;;;5070989;27;37425;-74
2022/04/19 04:29:33;;;;;;;29.40;22.90;;;6.70;99.90;;;;;;5063610;28;38939;-73
2022/04/19 04:31:59;;;;;;;29.63;22.93;;;6.80;99.90;;;;;;5075469;28;37705;-74
2022/04/19 04:34:25;;;;;;;32.67;23.27;;;6.80;99.90;;;;;;5080570;28;37069;-74
2022/04/19 04:36:51;;;;;;;31.03;23.87;;;6.80;99.90;;;;;;5063064;28;37707;-73
2022/04/19 04:39:17;;;;;;;34.93;24.90;;;6.80;99.90;;;;;;5059494;28;38840;-74
2022/04/19 04:41:45;;;;;;;32.57;23.27;;;6.80;99.90;;;;;;5070020;28;38507;-74
2022/04/19 04:44:11;;;;;;;33.97;23.27;;;6.80;99.90;;;;;;5063669;28;37097;-74
2022/04/19 04:49:39;;;;;;;32.70;24.43;;;6.80;99.90;;;;;;5062955;28;40856;-73
2022/04/19 04:52:12;;;;;;;30.35;22.75;;;6.80;99.90;;;;;;5043977;28;39146;-75
2022/04/19 04:54:41;;;;;;;34.20;23.37;;;6.80;99.90;;;;;;5079215;28;38428;-75
2022/04/19 04:57:08;;;;;;;30.07;23.73;;;6.80;99.90;;;;;;5057402;28;37304;-75
2022/04/19 04:59:35;;;;;;;28.13;21.83;;;6.80;99.90;;;;;;5062931;28;38523;-74
2022/04/19 05:02:04;;;;;;;36.53;24.77;;;6.80;99.90;;;;;;5066608;28;39166;-75
2022/04/19 05:04:36;;;;;;;31.90;23.67;;;6.80;99.90;;;;;;5045402;28;48594;-75
2022/04/19 05:07:04;;;;;;;35.42;24.15;;;6.80;99.90;;;;;;5055642;28;38105;-74
2022/04/19 05:09:30;;;;;;;31.60;24.17;;;6.80;99.90;;;;;;5063925;28;39220;-74
2022/04/19 05:11:56;;;;;;;35.10;25.20;;;6.80;99.90;;;;;;5079185;28;39207;-74
2022/04/19 05:14:28;;;;;;;34.27;24.80;;;6.80;99.90;;;;;;5065500;28;38230;-74
2022/04/19 05:16:54;;;;;;;34.87;24.73;;;6.80;99.90;;;;;;5071790;28;37629;-74
2022/04/19 05:19:20;;;;;;;32.83;25.33;;;6.80;99.90;;;;;;5059054;28;38866;-74
2022/04/19 05:21:47;;;;;;;35.83;25.23;;;6.90;99.90;;;;;;5047042;28;37288;-75
2022/04/19 05:24:14;;;;;;;33.50;24.13;;;6.90;99.90;;;;;;5071640;28;38096;-75
2022/04/19 05:26:40;;;;;;;34.33;24.07;;;6.90;99.90;;;;;;5071620;28;36920;-74
2022/04/19 05:29:06;;;;;;;31.90;24.13;;;6.90;99.90;;;;;;5070437;28;38613;-74
2022/04/19 05:31:32;;;;;;;31.93;23.93;;;7.00;99.90;;;;;;5066260;28;39074;-74
2022/04/19 05:33:59;;;;;;;33.43;23.60;;;7.00;99.90;;;;;;5068502;28;38829;-74
2022/04/19 05:36:25;;;;;;;30.20;23.17;;;7.10;99.90;;;;;;5070980;28;36587;-74
2022/04/19 05:38:54;;;;;;;31.33;23.53;;;7.10;99.90;;;;;;5057801;28;38537;-74
2022/04/19 05:41:21;;;;;;;32.93;24.70;;;7.20;99.90;;;;;;5066787;28;38397;-74
2022/04/19 05:43:48;;;;;;;34.70;24.97;;;7.30;99.90;;;;;;5064185;28;38157;-76
2022/04/19 05:46:16;;;;;;;32.13;24.50;;;7.40;99.90;;;;;;5074418;28;38684;-76
2022/04/19 05:48:46;;;;;;;33.93;23.90;;;7.50;99.90;;;;;;5061161;28;37680;-76
2022/04/19 05:51:13;;;;;;;31.23;23.47;;;7.50;99.90;;;;;;5045249;28;38507;-76
2022/04/19 05:53:39;;;;;;;32.10;22.83;;;7.70;99.90;;;;;;5060475;28;39237;-76
2022/04/19 05:56:06;;;;;;;24.17;18.93;;;7.80;99.90;;;;;;5062005;28;41219;-77
2022/04/19 05:58:32;;;;;;;31.40;21.93;;;7.90;99.90;;;;;;5062536;28;39819;-76
2022/04/19 06:00:59;;;;;;;26.20;21.73;;;8.20;99.90;;;;;;5064273;28;38826;-77
2022/04/19 06:06:09;;;;;;;28.77;21.40;;;8.60;99.90;;;;;;5065376;28;38690;-74
2022/04/19 06:08:35;;;;;;;25.07;19.73;;;8.70;99.90;;;;;;5056810;28;39441;-75
2022/04/19 06:11:01;;;;;;;25.83;19.90;;;8.90;99.90;;;;;;5060895;28;37734;-74
2022/04/19 06:13:28;;;;;;;25.77;19.88;;;9.00;99.90;;;;;;5053700;27;38280;-75
2022/04/19 06:15:54;;;;;;;24.97;18.23;;;9.20;99.90;;;;;;5063564;28;36855;-75
2022/04/19 06:18:20;;;;;;;23.55;18.30;;;9.30;99.90;;;;;;5066422;28;39309;-75
2022/04/19 06:20:46;;;;;;;25.50;17.80;;;9.50;99.90;;;;;;5061257;28;37217;-75
2022/04/19 06:23:13;;;;;;;22.27;17.17;;;9.70;99.90;;;;;;5077599;27;37242;-75
2022/04/19 06:25:39;;;;;;;23.50;17.88;;;9.80;99.90;;;;;;5068211;28;37534;-75
2022/04/19 06:28:05;;;;;;;23.42;16.92;;;10.00;99.90;;;;;;5065582;28;38947;-75
2022/04/19 06:30:31;;;;;;;21.02;17.17;;;10.20;99.90;;;;;;5069433;28;39352;-75
2022/04/19 06:32:58;;;;;;;22.48;16.75;;;10.40;99.90;;;;;;5061120;28;39086;-76
2022/04/19 06:35:24;;;;;;;22.70;16.10;;;10.60;99.90;;;;;;5067546;28;37469;-76
2022/04/19 06:37:50;;;;;;;19.73;15.25;;;10.60;99.90;;;;;;5067186;28;36896;-77
2022/04/19 06:40:16;;;;;;;22.23;16.33;;;10.70;99.90;;;;;;5063891;28;39482;-76
2022/04/19 06:42:43;;;;;;;23.23;16.33;;;10.80;99.90;;;;;;5078605;28;40002;-78
2022/04/19 06:45:10;;;;;;;22.77;14.60;;;10.90;99.90;;;;;;5086826;28;36435;-78
2022/04/19 06:47:36;;;;;;;20.40;14.98;;;11.00;99.90;;;;;;5038571;28;39360;-78
2022/04/19 06:50:03;;;;;;;22.08;14.77;;;11.20;99.90;;;;;;5062343;28;39634;-77
2022/04/19 06:52:29;;;;;;;19.55;14.27;;;11.30;99.90;;;;;;5060172;28;39329;-78
2022/04/19 06:54:56;;;;;;;18.95;12.93;;;11.50;99.90;;;;;;5047554;28;36933;-78
2022/04/19 06:57:22;;;;;;;18.23;14.10;;;11.70;99.90;;;;;;5055833;28;39392;-78
2022/04/19 06:59:49;;;;;;;23.88;13.32;;;12.00;99.90;;;;;;5067662;28;38692;-78
2022/04/19 07:02:15;;;;;;;19.77;13.55;;;12.20;99.90;;;;;;5061201;28;38770;-78
2022/04/19 07:04:43;;;;;;;18.92;13.50;;;12.40;99.90;;;;;;5054621;28;38209;-78
2022/04/19 07:07:10;;;;;;;20.00;12.60;;;12.60;99.90;;;;;;5073716;27;38754;-78
2022/04/19 07:09:36;;;;;;;20.35;13.35;;;12.80;99.90;;;;;;5064972;28;39936;-78
2022/04/19 07:12:02;;;;;;;18.77;13.60;;;13.00;99.90;;;;;;5074056;28;36821;-78
2022/04/19 07:14:28;;;;;;;17.98;12.85;;;13.30;99.90;;;;;;5076436;28;38260;-78
2022/04/19 07:16:54;;;;;;;17.45;12.02;;;13.60;99.90;;;;;;5065052;28;39891;-78
2022/04/19 07:19:20;;;;;;;16.58;11.50;;;13.90;99.90;;;;;;5061232;28;40131;-78
2022/04/19 07:27:21;;;;;;;17.58;12.00;;;14.30;99.90;;;;;;5061792;28;39390;-77
2022/04/19 07:29:47;;;;;;;17.95;11.40;;;14.50;99.90;;;;;;5066155;28;38246;-77
2022/04/19 07:32:13;;;;;;;15.10;11.63;;;14.50;99.90;;;;;;5071962;28;38431;-78
2022/04/19 07:34:39;;;;;;;19.40;11.52;;;14.70;99.90;;;;;;5081926;28;39198;-77
2022/04/19 07:37:05;;;;;;;18.52;11.50;;;15.00;99.90;;;;;;5067401;28;39044;-77
2022/04/19 07:39:31;;;;;;;16.95;11.40;;;15.20;99.90;;;;;;5066312;28;38559;-77
2022/04/19 07:42:00;;;;;;;13.10;10.40;;;15.40;99.90;;;;;;5073746;28;38285;-77
2022/04/19 07:44:29;;;;;;;14.98;10.25;;;15.70;99.90;;;;;;5076686;27;37360;-77
2022/04/19 07:46:55;;;;;;;13.48;10.23;;;16.00;99.90;;;;;;5085242;28;38602;-77
2022/04/19 07:49:21;;;;;;;15.40;10.88;;;16.00;99.90;;;;;;5070978;28;37962;-77
2022/04/19 07:51:48;;;;;;;15.80;9.95;;;16.30;99.90;;;;;;5068936;28;38229;-77
2022/04/19 07:54:14;;;;;;;13.38;10.30;;;16.40;99.90;;;;;;5064300;27;38647;-77
2022/04/19 07:56:40;;;;;;;20.20;11.18;;;16.40;99.90;;;;;;5060256;28;37559;-77
2022/04/19 07:59:06;;;;;;;18.10;10.30;;;16.30;99.90;;;;;;5062437;28;36819;-78
2022/04/19 08:01:32;;;;;;;13.43;9.02;;;16.30;99.90;;;;;;5067619;28;39561;-77
2022/04/19 08:03:59;;;;;;;16.95;10.75;;;16.40;99.90;;;;;;5048909;28;36864;-77
2022/04/19 08:06:25;;;;;;;14.52;10.27;;;16.70;99.90;;;;;;5073228;28;37891;-78
2022/04/19 08:08:51;;;;;;;13.95;9.85;;;16.80;99.90;;;;;;5070454;28;38300;-77
2022/04/19 08:11:17;;;;;;;16.58;11.02;;;16.70;99.90;;;;;;5076607;28;37939;-78
2022/04/19 08:13:43;;;;;;;16.48;10.13;;;16.60;99.90;;;;;;5036393;28;37843;-78
2022/04/19 08:16:09;;;;;;;14.05;9.65;;;16.50;99.90;;;;;;5047216;28;39352;-77
2022/04/19 08:18:35;;;;;;;12.80;9.95;;;16.70;99.90;;;;;;5081443;28;38708;-78
2022/04/19 08:21:01;;;;;;;13.82;9.52;;;17.10;99.90;;;;;;5071885;28;37974;-77
2022/04/19 08:23:27;;;;;;;15.93;10.60;;;16.90;99.90;;;;;;5066697;28;37861;-79
2022/04/19 08:25:54;;;;;;;15.45;9.70;;;17.10;99.90;;;;;;5073452;28;39385;-77
2022/04/19 08:28:20;;;;;;;12.93;9.57;;;17.40;99.90;;;;;;5057394;28;38759;-78
2022/04/19 08:30:46;;;;;;;13.52;9.20;;;17.70;99.90;;;;;;5055124;28;39814;-77
2022/04/19 08:33:12;;;;;;;15.27;9.90;;;17.70;99.90;;;;;;5057306;28;38273;-77
2022/04/19 08:35:38;;;;;;;15.30;9.50;;;17.50;99.90;;;;;;5054844;28;38530;-77
2022/04/19 08:38:05;;;;;;;15.23;9.30;;;17.70;99.90;;;;;;5064437;28;38406;-77
2022/04/19 08:40:33;;;;;;;13.27;8.82;;;17.50;99.90;;;;;;5024014;28;39562;-78
2022/04/19 08:43:00;;;;;;;11.18;8.55;;;17.80;99.90;;;;;;5043492;28;37372;-78
2022/04/19 08:45:26;;;;;;;11.13;8.00;;;18.00;99.90;;;;;;5049964;28;47686;-78
2022/04/19 08:47:53;;;;;;;11.45;7.38;;;18.00;99.90;;;;;;5043592;28;39045;-77
2022/04/19 08:50:20;;;;;;;11.95;7.97;;;17.90;99.90;;;;;;5045552;28;38835;-80
2022/04/19 08:52:47;;;;;;;9.65;6.85;;;18.20;99.90;;;;;;5049906;28;37253;-78
2022/04/19 08:57:59;;;;;;;10.88;7.20;;;18.00;99.90;;;;;;5063452;28;39238;-77
2022/04/19 09:00:25;;;;;;;8.32;6.38;;;18.10;99.90;;;;;;5059510;28;38204;-77
2022/04/19 09:02:54;;;;;;;8.70;6.72;;;18.10;99.90;;;;;;5051453;28;37803;-77
2022/04/19 09:05:22;;;;;;;9.90;6.97;;;18.10;99.90;;;;;;5053004;28;38585;-77
2022/04/19 09:07:50;;;;;;;9.50;6.47;;;18.00;99.90;;;;;;5070303;28;39404;-77
2022/04/19 09:10:29;;;;;;;10.23;5.65;;;18.10;99.90;;;;;;5082145;28;39221;-77
2022/04/19 09:13:04;;;;;;;8.90;6.00;;;18.20;99.90;;;;;;5067334;28;39368;-77
2022/04/19 09:15:33;;;;;;;8.23;5.75;;;18.50;99.90;;;;;;5071151;28;47401;-76
2022/04/19 09:18:00;;;;;;;8.45;5.72;;;18.50;99.90;;;;;;5043730;28;38497;-77
2022/04/19 09:20:27;;;;;;;7.57;5.00;;;18.60;99.90;;;;;;5068583;28;39883;-77
2022/04/19 09:23:05;;;;;;;6.80;5.38;;;18.80;99.90;;;;;;5071390;28;39107;-77
2022/04/19 09:25:32;;;;;;;7.95;5.35;;;18.80;99.90;;;;;;5074456;28;48027;-77
2022/04/19 09:27:59;;;;;;;7.80;5.57;;;18.70;99.90;;;;;;5078645;28;38440;-77
2022/04/19 09:30:26;;;;;;;6.57;4.93;;;19.00;99.90;;;;;;5070892;28;39140;-76
2022/04/19 09:33:04;;;;;;;6.82;5.00;;;19.20;99.90;;;;;;5068310;28;38254;-77
2022/04/19 09:35:34;;;;;;;8.68;5.25;;;19.50;99.90;;;;;;5079328;28;48677;-77
2022/04/19 09:38:00;;;;;;;5.80;4.15;;;19.40;99.90;;;;;;5080476;27;38731;-77
2022/04/19 09:40:28;;;;;;;7.22;4.95;;;19.40;99.90;;;;;;5084938;28;49257;-77
2022/04/19 09:42:57;;;;;;;6.97;4.85;;;19.60;99.90;;;;;;5071263;28;37419;-76
2022/04/19 09:45:27;;;;;;;7.65;5.57;;;19.60;99.90;;;;;;5067304;28;38515;-77
2022/04/19 09:47:54;;;;;;;8.63;5.20;;;19.40;99.90;;;;;;5061883;28;37572;-76
2022/04/19 09:50:22;;;;;;;6.30;4.57;;;19.40;99.90;;;;;;5070380;28;38063;-77
2022/04/19 09:52:50;;;;;;;7.22;4.88;;;19.70;99.90;;;;;;5072908;28;36625;-78
2022/04/19 09:55:17;;;;;;;6.82;5.10;;;19.60;99.90;;;;;;5061660;28;39100;-76
2022/04/19 09:57:45;;;;;;;6.72;4.88;;;19.80;98.70;;;;;;5078270;27;37642;-79
2022/04/19 10:00:17;;;;;;;8.27;5.53;;;20.00;99.70;;;;;;5064170;28;38261;-77
2022/04/19 10:08:21;;;;;;;7.15;5.32;;;20.60;97.40;;;;;;5069561;27;39271;-78
2022/04/19 10:10:50;;;;;;;7.25;4.93;;;20.50;96.40;;;;;;5077543;28;37820;-78
2022/04/19 10:13:23;;;;;;;7.03;5.25;;;20.70;96.50;;;;;;5066263;28;36462;-78
2022/04/19 10:15:49;;;;;;;13.48;5.28;;;20.70;97.70;;;;;;5065188;28;37947;-78
2022/04/19 10:18:16;;;;;;;6.90;5.43;;;20.40;96.50;;;;;;5065096;28;38939;-76
2022/04/19 10:21:09;;;;;;;9.30;5.07;;;20.20;96.60;;;;;;5074272;28;38023;-78
2022/04/19 10:23:40;;;;;;;7.22;5.40;;;20.50;96.90;;;;;;5062249;28;48665;-77
2022/04/19 10:26:20;;;;;;;6.17;4.73;;;20.30;97.10;;;;;;5072557;28;38963;-79
2022/04/19 10:28:51;;;;;;;7.13;4.95;;;20.50;97.30;;;;;;5067643;28;37546;-76
2022/04/19 10:31:26;;;;;;;9.30;5.63;;;21.20;98.20;;;;;;5071896;28;38163;-77
2022/04/19 10:33:52;;;;;;;11.10;5.47;;;21.50;96.40;;;;;;5067989;28;36312;-77
2022/04/19 10:36:39;;;;;;;8.70;5.63;;;21.10;93.90;;;;;;5068929;28;37929;-77
2022/04/19 10:39:19;;;;;;;7.70;5.18;;;20.80;93.70;;;;;;5066431;27;39788;-77
2022/04/19 10:41:53;;;;;;;7.72;5.53;;;20.70;91.70;;;;;;5060521;28;37832;-77
2022/04/19 10:44:43;;;;;;;8.23;5.68;;;20.70;92.50;;;;;;5060703;28;36204;-77
2022/04/19 10:47:13;;;;;;;8.40;5.38;;;20.70;94.00;;;;;;5078681;28;38190;-76
2022/04/19 10:49:49;;;;;;;7.30;5.22;;;21.00;92.50;;;;;;5082970;28;38619;-77
2022/04/19 10:52:39;;;;;;;6.90;5.00;;;20.70;91.80;;;;;;5085220;27;37393;-77
2022/04/19 10:55:21;;;;;;;10.93;6.47;;;20.80;93.40;;;;;;5075278;28;37451;-76
2022/04/19 10:58:09;;;;;;;10.45;6.47;;;21.20;94.30;;;;;;5061961;28;37830;-78
2022/04/19 11:00:35;;;;;;;8.73;6.28;;;20.90;95.20;;;;;;5063451;28;48734;-77
2022/04/19 11:03:02;;;;;;;9.55;5.88;;;21.20;93.50;;;;;;5064445;28;36840;-78
2022/04/19 11:05:45;;;;;;;9.52;6.57;;;21.10;90.00;;;;;;5069672;28;49194;-77
2022/04/19 11:08:26;;;;;;;7.80;5.75;;;21.40;92.10;;;;;;5068100;28;37537;-77
2022/04/19 11:10:55;;;;;;;8.32;6.28;;;21.90;93.10;;;;;;5078073;28;37430;-77
2022/04/19 11:13:26;;;;;;;9.45;6.07;;;22.20;92.10;;;;;;5066991;28;37257;-76
2022/04/19 11:15:57;;;;;;;7.53;6.30;;;21.80;92.40;;;;;;5084628;28;36604;-76
2022/04/19 11:18:25;;;;;;;7.88;5.95;;;21.90;91.90;;;;;;5065056;28;39240;-76
2022/04/19 11:20:57;;;;;;;8.80;6.00;;;21.50;90.80;;;;;;5074185;28;38857;-76
2022/04/19 11:23:25;;;;;;;5.72;4.90;;;21.50;92.40;;;;;;5078448;28;38712;-78
2022/04/19 11:25:54;;;;;;;10.00;6.22;;;21.50;91.40;;;;;;5078842;28;37234;-76
2022/04/19 11:28:21;;;;;;;7.80;5.45;;;21.50;92.00;;;;;;5096125;27;37598;-77
2022/04/19 11:30:50;;;;;;;9.75;6.78;;;21.60;92.70;;;;;;5085643;28;38862;-77
2022/04/19 11:33:23;;;;;;;9.85;5.53;;;21.40;95.60;;;;;;5069666;27;38934;-77
2022/04/19 11:36:11;;;;;;;8.80;5.95;;;21.60;93.80;;;;;;5067875;28;37170;-77
2022/04/19 11:38:46;;;;;;;7.15;5.05;;;21.70;89.90;;;;;;5062236;28;47636;-76
2022/04/19 11:46:45;;;;;;;9.27;5.50;;;21.40;86.40;;;;;;5066769;27;49191;-78
2022/04/19 11:49:24;;;;;;;8.63;5.35;;;21.20;86.70;;;;;;5086092;28;39492;-77
2022/04/19 11:51:55;;;;;;;7.50;5.22;;;21.30;87.90;;;;;;5081101;28;37740;-76
2022/04/19 11:54:23;;;;;;;9.35;5.72;;;21.80;90.30;;;;;;5080342;28;38060;-76
2022/04/19 11:56:51;;;;;;;8.23;5.97;;;22.00;90.10;;;;;;5076502;28;38095;-76
2022/04/19 11:59:18;;;;;;;7.65;6.03;;;21.80;87.50;;;;;;5073626;28;37569;-76
2022/04/19 12:01:49;;;;;;;9.55;6.40;;;21.50;87.20;;;;;;5066687;28;38338;-76
2022/04/19 12:04:15;;;;;;;10.23;6.07;;;21.60;90.10;;;;;;5062492;28;37164;-76
2022/04/19 12:07:02;;;;;;;9.48;7.47;;;21.80;88.20;;;;;;5074202;28;37598;-76
2022/04/19 12:09:30;;;;;;;10.55;7.15;;;21.80;90.30;;;;;;5077774;28;48972;-75
2022/04/19 12:11:57;;;;;;;10.52;7.22;;;22.00;89.90;;;;;;5079968;28;39214;-76
2022/04/19 12:14:27;;;;;;;9.60;6.43;;;21.90;89.60;;;;;;5076494;27;39076;-76
2022/04/19 12:17:00;;;;;;;9.60;6.68;;;21.70;90.70;;;;;;5068850;28;36424;-76
2022/04/19 12:19:40;;;;;;;10.07;6.95;;;22.30;90.90;;;;;;5076150;28;41855;-76
2022/04/19 12:22:15;;;;;;;9.80;6.53;;;23.00;89.00;;;;;;5072126;28;37736;-76
2022/04/19 12:24:49;;;;;;;11.52;7.30;;;23.00;90.50;;;;;;5072182;28;39219;-76
2022/04/19 12:27:22;;;;;;;9.55;6.53;;;23.20;85.10;;;;;;5078880;28;37431;-74
2022/04/19 12:29:55;;;;;;;11.00;7.22;;;22.80;89.90;;;;;;5085149;28;40101;-76
2022/04/19 12:32:21;;;;;;;10.55;7.63;;;22.90;89.30;;;;;;5073627;28;37540;-77
2022/04/19 12:34:47;;;;;;;13.35;6.75;;;22.80;89.60;;;;;;5074743;28;39210;-75
2022/04/19 12:37:17;;;;;;;10.57;7.20;;;22.70;88.50;;;;;;5083150;27;36181;-76
2022/04/19 12:39:58;;;;;;;10.68;6.80;;;22.40;86.10;;;;;;5070118;28;38514;-77
2022/04/19 12:42:25;;;;;;;12.02;7.07;;;22.10;86.40;;;;;;5069721;28;38538;-76
2022/04/19 12:45:08;;;;;;;9.77;6.80;;;22.30;85.50;;;;;;5068363;28;38135;-77
2022/04/19 12:47:34;;;;;;;9.68;6.63;;;22.20;86.20;;;;;;5062330;28;49047;-76
2022/04/19 12:50:12;;;;;;;12.70;6.65;;;22.70;90.00;;;;;;5064044;28;38632;-75
2022/04/19 12:52:39;;;;;;;9.18;6.60;;;23.50;86.70;;;;;;5062554;28;47305;-76
2022/04/19 12:55:05;;;;;;;9.93;5.50;;;23.60;80.90;;;;;;5065589;28;40572;-76
2022/04/19 12:57:35;;;;;;;8.15;5.70;;;23.60;82.90;;;;;;5079597;28;38255;-76
2022/04/19 13:00:01;;;;;;;10.00;5.50;;;23.90;81.10;;;;;;5071574;28;38786;-75
2022/04/19 13:02:28;;;;;;;7.78;5.50;;;23.60;79.60;;;;;;5065485;28;38910;-76
2022/04/19 13:04:54;;;;;;;8.85;5.40;;;23.50;79.50;;;;;;5071000;28;39065;-76
2022/04/19 13:13:01;;;;;;;5.93;4.53;;;23.40;77.00;;;;;;5063284;28;40014;-76
2022/04/19 13:15:29;;;;;;;7.82;4.80;;;23.90;81.10;;;;;;5056538;28;47310;-77
2022/04/19 13:17:55;;;;;;;7.32;5.32;;;24.10;78.40;;;;;;5059235;28;36696;-76
2022/04/19 13:20:22;;;;;;;7.30;5.65;;;23.80;75.00;;;;;;5067569;28;38377;-76
2022/04/19 13:22:48;;;;;;;5.70;4.60;;;24.00;74.60;;;;;;5064982;28;38416;-76